Aurora, NE

5:17 AM CST on February 11, 2016 (GMT -0600)
Aurora Municipal | | Change Station
CLOSE
Current Station
Airport
Location: Aurora,
Elevation: 1804 ft
Nearby Weather Stations

Elev 1804 ft 40.89 °N, 97.99 °W | Updated 22 minutes ago

Overcast
Overcast
25 °F
Feels Like 17 °F
N
7
Wind Variable Wind from North

Today
High -- | Low -- °F
--% Chance of Precip.
Yesterday
High -- | Low -- °F
Precip. -- in
Pressure 30.21 in
Visibility 10.0 miles
Clouds Overcast 1300 ft
Windchill 17 °F
Dew Point 23 °F
Humidity 93%
Rainfall 0.00 in
Snow Depth Not available.
7:31 AM 6:01 PM
Waxing Crescent, 11% visible
METAR KAUH 111055Z AUTO 01006KT 10SM OVC013 M04/M05 A3021 RMK AO2 T10401050
Pressure 30.21 in
Visibility 10.0 miles
Clouds Overcast 1300 ft
Windchill 17 °F
Dew Point 23 °F
Humidity 93%
Rainfall 0.00 in
Snow Depth Not available.
7:31 AM 6:01 PM
Waxing Crescent, 11% visible
METAR KAUH 111055Z AUTO 01006KT 10SM OVC013 M04/M05 A3021 RMK AO2 T10401050

10-Day Weather Forecast

Almanac

Astronomy

Feb. 11, 2016 Rise Set
Actual Time
Civil Twilight
Nautical Twilight
Astronomical Twilight
Moon
Length of Visible Light
Length of Day
Tomorrow will be .
, % of the Moon is Illuminated

Today's Extremes

State Highs State Lows

Community

WunderPhotos

Upload Photos

1,892,030 photos uploaded!

WunderBlog® & News

Nearby

Air Quality

  Air Quality AQ Index Pollutant
Not available.

Snow Depth

Station Depth Elevation

Earthquake Activity

City Distance Mag. Time & Date
Minimum magnitude displayed is 2.5.

Coastal Water Temperatures

Place Temperature

Stations

Nearby Weather Stations

Station Location Temp. Windchill Dew Point Humidity Wind Precip. Elev Updated Type
                   

Watches & Warnings

There are currently no watches in effect.